Time;durP1;ratioP1;P1;durP2;ratioP2;P2;SDS_P1;SDS_P2;PMS_P1;PMS_P2;Temp;Humidity;BMP_temperature;BMP_pressure;BME280_temperature;BME280_humidity;BME280_pressure;Samples;Min_cycle;Max_cycle;Signal;HPM_P1;HPM_P2
2024/03/10 00:01:27;;;;;;;4.00;2.92;;;7.00;53.40;;;;;;5033486;28;20380;-78
2024/03/10 00:03:53;;;;;;;5.43;3.22;;;7.00;53.40;;;;;;5026830;28;20400;-78
2024/03/10 00:06:20;;;;;;;7.10;3.05;;;7.10;53.40;;;;;;5039690;28;20044;-78
2024/03/10 00:08:46;;;;;;;4.43;3.38;;;7.10;53.40;;;;;;5042559;28;20135;-79
2024/03/10 00:11:14;;;;;;;4.88;3.22;;;7.00;53.40;;;;;;5027721;28;20524;-79
2024/03/10 00:13:42;;;;;;;5.07;3.60;;;7.10;53.40;;;;;;5017324;28;20080;-80
2024/03/10 00:16:11;;;;;;;5.05;3.35;;;7.10;53.40;;;;;;5040940;28;20626;-79
2024/03/10 00:18:37;;;;;;;5.72;3.70;;;7.00;53.40;;;;;;5040949;28;20508;-79
2024/03/10 00:21:06;;;;;;;6.13;3.40;;;7.10;53.40;;;;;;5040683;28;20432;-79
2024/03/10 00:23:33;;;;;;;5.95;3.50;;;7.00;53.30;;;;;;5040630;28;20125;-79
2024/03/10 00:25:59;;;;;;;5.97;3.55;;;7.10;53.30;;;;;;5041907;28;20037;-80
2024/03/10 00:28:25;;;;;;;5.95;4.07;;;7.10;53.40;;;;;;5036100;28;20037;-79
2024/03/10 00:30:52;;;;;;;5.28;3.55;;;7.10;53.20;;;;;;5047356;28;20032;-79
2024/03/10 00:33:19;;;;;;;6.15;3.17;;;7.00;53.20;;;;;;5042650;28;20032;-80
2024/03/10 00:35:46;;;;;;;7.25;3.55;;;7.00;53.30;;;;;;5030349;28;20033;-80
2024/03/10 00:38:12;;;;;;;6.20;2.90;;;7.10;53.40;;;;;;5044719;28;20443;-80
2024/03/10 00:40:38;;;;;;;4.43;3.10;;;7.00;53.40;;;;;;5030809;28;20033;-79
2024/03/10 00:43:04;;;;;;;4.60;2.92;;;7.10;53.40;;;;;;5045046;28;20106;-79
2024/03/10 00:45:30;;;;;;;3.60;2.65;;;7.00;53.40;;;;;;5055435;28;20165;-79
2024/03/10 00:47:59;;;;;;;4.00;2.92;;;7.00;53.30;;;;;;5049240;28;20078;-79
2024/03/10 00:50:25;;;;;;;3.95;2.67;;;7.00;53.20;;;;;;5050650;28;20040;-79
2024/03/10 00:52:51;;;;;;;3.35;2.50;;;7.00;53.10;;;;;;5060727;28;20430;-78
2024/03/10 00:55:17;;;;;;;3.55;2.65;;;7.00;53.10;;;;;;5049544;28;20123;-80
2024/03/10 00:57:43;;;;;;;4.90;2.60;;;7.10;53.10;;;;;;5062843;28;20566;-80
2024/03/10 01:00:10;;;;;;;3.00;2.38;;;7.10;53.20;;;;;;5042989;28;20079;-79
2024/03/10 01:02:40;;;;;;;8.07;2.72;;;7.00;53.10;;;;;;5038343;28;20039;-79
2024/03/10 01:05:07;;;;;;;4.28;2.40;;;7.00;53.30;;;;;;5063669;28;20032;-79
2024/03/10 01:07:33;;;;;;;4.07;2.38;;;7.00;53.40;;;;;;5049554;28;20059;-80
2024/03/10 01:09:59;;;;;;;3.80;2.47;;;7.00;54.00;;;;;;5061917;28;20045;-80
2024/03/10 01:12:25;;;;;;;4.97;2.47;;;7.10;53.70;;;;;;5062725;28;20037;-79
2024/03/10 01:14:51;;;;;;;6.13;2.88;;;7.10;53.90;;;;;;5066649;28;20499;-81
2024/03/10 01:17:17;;;;;;;2.58;2.00;;;7.10;53.80;;;;;;5062246;28;20058;-81
2024/03/10 01:19:44;;;;;;;4.00;2.63;;;7.10;53.90;;;;;;5060801;28;20079;-80
2024/03/10 01:22:11;;;;;;;3.85;2.13;;;7.10;53.90;;;;;;5062066;28;20029;-80
2024/03/10 01:24:38;;;;;;;2.50;2.08;;;7.10;53.90;;;;;;5070847;28;20037;-80
2024/03/10 01:27:04;;;;;;;3.80;2.50;;;7.10;53.90;;;;;;5062407;28;20037;-81
2024/03/10 01:29:34;;;;;;;3.38;2.25;;;7.10;53.90;;;;;;5050129;28;20051;-80
2024/03/10 01:32:10;;;;;;;2.53;2.22;;;7.10;53.90;;;;;;5060235;28;20169;-80
2024/03/10 01:34:41;;;;;;;4.13;1.83;;;7.10;53.80;;;;;;5061499;28;20115;-79
2024/03/10 01:37:09;;;;;;;3.25;2.05;;;7.10;53.70;;;;;;5060505;28;20479;-79
2024/03/10 01:39:36;;;;;;;2.20;1.90;;;7.10;53.60;;;;;;5049620;28;20090;-79
2024/03/10 01:42:03;;;;;;;3.97;2.28;;;7.10;53.60;;;;;;5060948;28;20072;-79
2024/03/10 01:44:29;;;;;;;2.28;1.77;;;7.10;54.20;;;;;;5062778;28;20037;-78
2024/03/10 01:47:01;;;;;;;2.63;1.85;;;7.10;53.60;;;;;;5045199;28;20509;-79
2024/03/10 01:49:33;;;;;;;3.88;2.20;;;7.10;53.60;;;;;;5060963;28;20041;-78
2024/03/10 01:52:02;;;;;;;3.45;1.92;;;7.10;53.60;;;;;;5060022;28;20039;-80
2024/03/10 01:54:34;;;;;;;2.83;1.77;;;7.10;53.50;;;;;;5061077;28;20384;-78
2024/03/10 01:57:09;;;;;;;2.65;1.80;;;7.10;53.50;;;;;;5060432;28;20068;-79
2024/03/10 01:59:38;;;;;;;3.72;1.98;;;7.10;53.40;;;;;;5061372;28;20141;-77
2024/03/10 02:02:10;;;;;;;4.13;2.22;;;7.10;53.50;;;;;;5060246;28;20565;-77
2024/03/10 02:04:40;;;;;;;4.07;2.10;;;7.10;53.50;;;;;;5061598;28;20036;-79
2024/03/10 02:07:06;;;;;;;3.45;1.77;;;7.10;53.60;;;;;;5061468;28;20040;-79
2024/03/10 02:09:37;;;;;;;2.45;2.05;;;7.10;53.60;;;;;;5022042;28;20087;-78
2024/03/10 02:12:05;;;;;;;2.83;2.00;;;7.10;53.60;;;;;;5058643;28;20124;-78
2024/03/10 02:14:31;;;;;;;2.47;2.00;;;7.10;53.50;;;;;;5062032;28;20067;-79
2024/03/10 02:16:57;;;;;;;1.95;1.73;;;7.10;53.40;;;;;;5060878;28;20072;-79
2024/03/10 02:19:24;;;;;;;3.58;1.98;;;7.10;53.40;;;;;;5061726;28;20093;-79
2024/03/10 02:21:50;;;;;;;2.42;1.65;;;7.10;53.40;;;;;;5059080;28;20057;-81
2024/03/10 02:24:30;;;;;;;2.33;1.50;;;7.10;53.40;;;;;;5066374;28;20056;-82
2024/03/10 02:26:57;;;;;;;2.35;2.03;;;7.10;53.40;;;;;;5053654;28;20036;-82
2024/03/10 02:29:26;;;;;;;2.63;1.80;;;7.10;53.30;;;;;;5060963;28;20063;-82
2024/03/10 02:48:29;;;;;;;1.92;1.70;;;7.10;53.50;;;;;;5060768;28;20053;-82
2024/03/10 02:50:58;;;;;;;2.90;1.70;;;7.10;53.50;;;;;;5064296;28;20036;-82
2024/03/10 02:53:27;;;;;;;3.33;2.08;;;7.10;53.40;;;;;;5071306;28;20146;-83
2024/03/10 02:55:59;;;;;;;3.33;2.28;;;7.10;53.50;;;;;;5055893;28;20043;-82
2024/03/10 02:58:28;;;;;;;2.47;1.83;;;7.10;53.40;;;;;;5061998;28;20177;-83
2024/03/10 03:01:03;;;;;;;3.55;1.92;;;7.10;53.40;;;;;;5026138;28;20032;-80
2024/03/10 03:03:29;;;;;;;2.50;1.70;;;7.10;53.40;;;;;;5059384;28;20040;-80
2024/03/10 03:05:58;;;;;;;3.72;1.75;;;7.10;53.40;;;;;;5030819;28;20021;-80
2024/03/10 03:08:24;;;;;;;2.97;1.77;;;7.10;53.30;;;;;;5074859;28;20045;-80
2024/03/10 03:10:50;;;;;;;4.22;1.90;;;7.10;53.40;;;;;;5060172;28;20037;-80
2024/03/10 03:13:17;;;;;;;4.00;1.98;;;7.10;53.40;;;;;;5029309;28;20043;-80
2024/03/10 03:15:45;;;;;;;3.58;1.73;;;7.10;53.30;;;;;;5068697;28;20036;-81
2024/03/10 03:18:14;;;;;;;2.22;1.63;;;7.10;53.30;;;;;;5055737;28;20052;-80
2024/03/10 03:20:42;;;;;;;2.17;1.50;;;7.10;53.30;;;;;;5026159;28;20044;-81
2024/03/10 03:23:10;;;;;;;2.90;1.52;;;7.10;53.20;;;;;;5054724;28;20032;-81
2024/03/10 03:25:41;;;;;;;3.70;2.00;;;7.10;53.40;;;;;;5046470;28;20043;-82
2024/03/10 03:28:07;;;;;;;3.10;2.13;;;7.10;53.40;;;;;;5061687;28;20040;-80
2024/03/10 03:30:42;;;;;;;2.72;1.85;;;7.10;53.20;;;;;;5040123;28;20033;-81
2024/03/10 03:33:20;;;;;;;2.55;1.85;;;7.10;53.30;;;;;;5021303;28;20029;-81
2024/03/10 03:35:48;;;;;;;2.63;1.83;;;7.10;53.30;;;;;;5032319;28;20099;-80
2024/03/10 03:38:14;;;;;;;3.13;2.10;;;7.10;53.30;;;;;;5054346;28;20044;-81
2024/03/10 03:40:43;;;;;;;2.40;1.95;;;7.10;53.20;;;;;;5058811;28;20037;-82
2024/03/10 03:43:24;;;;;;;2.22;1.70;;;7.10;53.20;;;;;;5058045;28;20032;-81
2024/03/10 03:45:53;;;;;;;2.80;2.20;;;7.10;53.10;;;;;;5062789;28;20491;-81
2024/03/10 03:48:27;;;;;;;4.47;2.10;;;7.10;53.10;;;;;;5060691;28;20029;-82
2024/03/10 03:50:59;;;;;;;4.47;2.25;;;7.10;52.90;;;;;;5046522;28;20036;-81
2024/03/10 03:53:26;;;;;;;3.90;2.30;;;7.10;52.90;;;;;;5039123;28;20087;-81
2024/03/10 03:55:55;;;;;;;5.20;2.20;;;7.10;52.80;;;;;;5064450;28;20037;-80
2024/03/10 03:58:36;;;;;;;3.38;2.33;;;7.10;52.80;;;;;;5056845;28;20040;-80
2024/03/10 04:01:07;;;;;;;4.25;2.05;;;7.00;52.60;;;;;;5058840;28;20112;-80
2024/03/10 04:03:36;;;;;;;3.65;2.03;;;7.10;52.70;;;;;;5055344;28;20028;-81
2024/03/10 04:06:05;;;;;;;3.30;2.00;;;7.10;52.60;;;;;;5063790;28;20055;-81
2024/03/10 04:08:31;;;;;;;3.40;2.17;;;7.10;52.60;;;;;;5064460;28;20035;-80
2024/03/10 04:10:58;;;;;;;2.70;2.10;;;7.00;52.50;;;;;;5063430;28;20071;-80
2024/03/10 04:13:25;;;;;;;2.92;1.90;;;7.00;52.50;;;;;;5065795;28;20510;-80
2024/03/10 04:15:51;;;;;;;3.15;2.10;;;7.00;52.50;;;;;;5046915;28;20032;-80
2024/03/10 04:18:17;;;;;;;3.83;2.10;;;7.00;52.60;;;;;;5063235;28;20128;-81
2024/03/10 04:20:45;;;;;;;6.38;2.28;;;7.00;52.50;;;;;;5068258;28;20055;-81
2024/03/10 04:23:11;;;;;;;3.00;2.08;;;7.00;52.50;;;;;;5065470;28;20123;-82
2024/03/10 04:25:37;;;;;;;4.40;2.30;;;7.00;52.40;;;;;;5050277;28;20033;-80
2024/03/10 04:28:04;;;;;;;4.38;2.25;;;7.00;52.30;;;;;;5054298;28;20040;-85
2024/03/10 04:30:34;;;;;;;3.35;2.15;;;7.00;52.20;;;;;;5059848;28;20035;-83
2024/03/10 04:33:00;;;;;;;3.85;2.35;;;7.00;52.20;;;;;;5056497;28;20071;-83
2024/03/10 04:35:27;;;;;;;3.28;2.10;;;7.00;52.00;;;;;;5054870;28;20593;-83
2024/03/10 04:37:57;;;;;;;3.60;2.15;;;7.00;52.00;;;;;;5057607;28;20506;-84
2024/03/10 04:40:23;;;;;;;3.92;2.47;;;7.00;52.00;;;;;;5054625;28;20036;-84
2024/03/10 04:42:51;;;;;;;3.67;2.17;;;7.00;51.90;;;;;;5056989;28;20098;-83
2024/03/10 04:45:17;;;;;;;4.40;2.15;;;7.00;51.80;;;;;;5070953;28;20040;-83
2024/03/10 04:47:43;;;;;;;5.35;2.30;;;7.00;51.70;;;;;;5054540;28;20029;-83
2024/03/10 04:50:12;;;;;;;4.15;2.65;;;7.00;51.70;;;;;;5086828;28;20033;-82
2024/03/10 04:52:38;;;;;;;3.13;2.20;;;7.00;51.70;;;;;;5040242;28;20033;-83
2024/03/10 04:55:10;;;;;;;3.13;2.05;;;7.00;51.70;;;;;;5032563;28;20460;-83
2024/03/10 04:57:43;;;;;;;4.13;2.58;;;7.00;51.70;;;;;;5040529;28;20120;-84
2024/03/10 05:00:18;;;;;;;3.67;2.60;;;7.00;51.70;;;;;;5048630;28;20691;-81
2024/03/10 05:02:50;;;;;;;3.22;2.20;;;7.00;51.70;;;;;;5056642;28;20040;-81
2024/03/10 05:05:18;;;;;;;6.22;2.38;;;7.00;51.70;;;;;;5047936;28;20484;-83
2024/03/10 05:07:50;;;;;;;6.18;2.60;;;7.00;51.50;;;;;;5057024;28;20041;-82
2024/03/10 05:10:19;;;;;;;6.20;2.20;;;7.00;51.40;;;;;;5053320;28;20124;-81
2024/03/10 05:12:45;;;;;;;6.25;2.65;;;7.00;51.40;;;;;;5055641;28;20167;-83
2024/03/10 05:15:15;;;;;;;3.90;2.40;;;7.00;51.30;;;;;;5040592;28;20044;-82
2024/03/10 05:17:47;;;;;;;3.70;2.50;;;7.00;51.30;;;;;;5055765;28;20084;-82
2024/03/10 05:20:15;;;;;;;5.45;2.58;;;7.00;51.20;;;;;;5042167;28;20036;-81
2024/03/10 05:22:41;;;;;;;4.60;2.70;;;7.00;51.20;;;;;;5068941;28;20131;-81
2024/03/10 05:25:08;;;;;;;3.58;2.28;;;7.00;51.20;;;;;;5069215;28;20112;-82
2024/03/10 05:27:41;;;;;;;3.63;2.60;;;7.00;51.30;;;;;;5045231;28;20056;-80
2024/03/10 05:30:08;;;;;;;4.05;2.50;;;7.00;51.30;;;;;;5054250;28;20417;-81
2024/03/10 05:32:35;;;;;;;4.22;2.30;;;7.00;51.20;;;;;;5055131;28;20110;-80
2024/03/10 05:35:05;;;;;;;4.70;2.40;;;7.00;51.40;;;;;;5052929;28;20052;-81
2024/03/10 05:37:36;;;;;;;4.03;2.25;;;7.10;51.40;;;;;;5054211;28;20050;-79
2024/03/10 05:40:06;;;;;;;2.95;2.30;;;7.10;51.30;;;;;;5067109;28;20051;-81
2024/03/10 05:42:34;;;;;;;3.45;2.50;;;7.10;51.30;;;;;;5054721;28;20044;-83
2024/03/10 05:45:02;;;;;;;4.32;2.75;;;7.20;51.50;;;;;;5053714;28;20124;-83
2024/03/10 05:47:30;;;;;;;4.03;3.10;;;7.10;51.60;;;;;;5047676;28;20399;-84
2024/03/10 05:49:56;;;;;;;4.80;2.70;;;7.10;51.40;;;;;;5038980;28;20033;-83
2024/03/10 05:52:24;;;;;;;4.88;2.75;;;7.20;51.50;;;;;;5048027;28;20037;-81
2024/03/10 05:54:50;;;;;;;4.00;2.75;;;7.20;51.30;;;;;;5042364;28;20643;-79
2024/03/10 05:57:16;;;;;;;4.88;2.55;;;7.20;51.30;;;;;;5052690;28;20041;-84
2024/03/10 05:59:43;;;;;;;4.13;2.85;;;7.30;51.20;;;;;;5042021;28;20182;-85
2024/03/10 06:02:13;;;;;;;8.82;3.28;;;7.30;51.30;;;;;;5053101;28;20115;-82
2024/03/10 06:04:39;;;;;;;12.10;3.35;;;7.40;51.30;;;;;;5086937;28;20029;-85
2024/03/10 06:07:06;;;;;;;5.93;2.88;;;7.40;51.10;;;;;;5044618;28;20056;-83
2024/03/10 06:09:36;;;;;;;7.55;2.60;;;7.40;51.30;;;;;;5084210;28;20120;-78
2024/03/10 06:12:03;;;;;;;5.10;2.72;;;7.50;51.50;;;;;;5053620;28;20319;-80
2024/03/10 06:14:30;;;;;;;3.83;2.65;;;7.50;51.60;;;;;;5051199;28;20032;-80
2024/03/10 06:16:57;;;;;;;4.40;3.05;;;7.60;51.20;;;;;;5051918;28;20029;-81
2024/03/10 06:27:39;;;;;;;8.43;2.97;;;7.80;50.80;;;;;;5068256;28;20041;-80
2024/03/10 06:30:06;;;;;;;5.85;2.83;;;7.90;51.20;;;;;;5042870;28;20067;-78
2024/03/10 06:32:32;;;;;;;5.78;2.70;;;7.90;51.50;;;;;;5051802;28;20723;-78
2024/03/10 06:34:58;;;;;;;4.10;2.78;;;8.00;51.60;;;;;;5051315;28;20123;-76
2024/03/10 06:37:24;;;;;;;6.53;2.63;;;8.00;51.60;;;;;;5050805;28;20666;-76
2024/03/10 06:39:50;;;;;;;4.57;2.50;;;8.10;51.50;;;;;;5053521;28;20044;-78
2024/03/10 06:42:17;;;;;;;4.75;2.90;;;8.10;51.30;;;;;;5042697;28;20040;-80
2024/03/10 06:44:43;;;;;;;5.05;2.40;;;8.20;51.30;;;;;;5050446;28;20083;-80
2024/03/10 06:47:09;;;;;;;5.40;2.60;;;8.20;51.30;;;;;;5052249;28;20028;-78
2024/03/10 06:49:35;;;;;;;4.80;2.50;;;8.40;51.70;;;;;;5049445;28;20063;-77
2024/03/10 06:52:01;;;;;;;4.70;2.42;;;8.40;52.10;;;;;;5066548;28;20135;-76
2024/03/10 06:54:27;;;;;;;11.20;2.45;;;8.50;54.10;;;;;;5049565;28;20032;-74
2024/03/10 06:56:53;;;;;;;4.18;2.30;;;8.60;56.30;;;;;;5051374;28;20052;-74
2024/03/10 06:59:22;;;;;;;3.22;2.28;;;8.70;58.10;;;;;;5050203;28;20037;-75
2024/03/10 07:01:48;;;;;;;3.63;2.25;;;8.90;58.80;;;;;;5053676;28;20507;-74
2024/03/10 07:04:14;;;;;;;5.07;2.20;;;9.00;59.00;;;;;;5053005;28;20033;-74
2024/03/10 07:06:40;;;;;;;4.25;2.20;;;9.10;59.10;;;;;;5050536;28;20033;-74
2024/03/10 07:09:08;;;;;;;5.28;2.40;;;9.30;59.40;;;;;;5051833;28;20035;-74
2024/03/10 07:11:42;;;;;;;6.60;2.33;;;9.50;59.60;;;;;;5051277;28;20041;-75
2024/03/10 07:14:08;;;;;;;5.25;2.33;;;9.60;59.40;;;;;;5052708;28;20043;-73
2024/03/10 07:16:35;;;;;;;6.18;2.47;;;9.70;59.10;;;;;;5051300;28;20069;-74
2024/03/10 07:19:02;;;;;;;11.07;3.70;;;9.90;59.00;;;;;;5050636;28;20083;-75
2024/03/10 07:21:28;;;;;;;12.73;3.72;;;10.00;58.60;;;;;;5050501;28;20069;-74
2024/03/10 07:23:54;;;;;;;13.70;4.60;;;10.20;58.30;;;;;;5051626;28;20342;-75
2024/03/10 07:26:20;;;;;;;13.18;3.88;;;10.30;58.00;;;;;;5050675;28;21518;-75
2024/03/10 07:28:46;;;;;;;18.77;3.80;;;10.50;57.80;;;;;;5049762;28;20552;-76
2024/03/10 07:31:12;;;;;;;12.65;4.20;;;10.60;57.90;;;;;;5049370;28;20037;-76
2024/03/10 07:33:38;;;;;;;14.77;4.40;;;10.70;57.90;;;;;;5049358;28;20044;-75
2024/03/10 07:36:04;;;;;;;14.73;3.90;;;10.90;57.90;;;;;;5054199;28;20041;-75
2024/03/10 07:38:30;;;;;;;17.35;4.53;;;11.00;57.80;;;;;;5055770;28;20039;-76
2024/03/10 07:40:57;;;;;;;11.95;3.60;;;11.10;57.40;;;;;;5053665;28;20037;-76
2024/03/10 07:43:23;;;;;;;10.65;3.38;;;11.20;57.20;;;;;;5054322;28;20487;-75
2024/03/10 07:45:50;;;;;;;10.82;3.65;;;11.30;56.90;;;;;;5054717;28;20078;-75
2024/03/10 07:48:17;;;;;;;6.75;3.40;;;11.50;56.30;;;;;;5055282;28;20037;-76
2024/03/10 07:50:43;;;;;;;8.70;3.20;;;11.60;56.00;;;;;;5054504;28;20060;-75
2024/03/10 07:53:09;;;;;;;6.50;2.70;;;11.70;55.80;;;;;;5054181;28;20029;-76
2024/03/10 07:55:36;;;;;;;7.32;3.20;;;11.80;55.40;;;;;;5086339;28;20044;-76
2024/03/10 07:58:06;;;;;;;7.45;2.83;;;11.90;55.00;;;;;;5055379;28;20132;-75
2024/03/10 08:00:32;;;;;;;7.40;2.25;;;12.10;54.80;;;;;;5053379;28;20036;-74
2024/03/10 08:02:58;;;;;;;5.95;2.78;;;12.10;54.60;;;;;;5052970;28;20049;-72
2024/03/10 08:05:43;;;;;;;5.07;2.58;;;12.20;54.10;;;;;;5055547;28;20803;-73
2024/03/10 08:08:09;;;;;;;5.20;2.47;;;12.30;54.50;;;;;;5063268;28;20089;-72
2024/03/10 08:10:35;;;;;;;8.57;2.90;;;12.40;53.70;;;;;;5061880;28;20075;-73
2024/03/10 08:13:01;;;;;;;6.32;2.42;;;12.50;53.50;;;;;;5061071;28;20063;-73
2024/03/10 08:15:27;;;;;;;3.08;1.75;;;12.50;53.20;;;;;;5064433;28;20116;-72
2024/03/10 08:17:53;;;;;;;3.88;1.85;;;12.70;53.10;;;;;;5063049;28;20135;-79
2024/03/10 08:20:19;;;;;;;4.28;2.10;;;12.70;52.60;;;;;;5063873;28;20112;-78
2024/03/10 08:22:45;;;;;;;3.22;1.80;;;12.80;51.10;;;;;;5063582;28;20494;-79
2024/03/10 08:25:12;;;;;;;2.47;1.55;;;12.70;49.40;;;;;;5066378;28;20032;-79
2024/03/10 08:27:38;;;;;;;3.85;1.77;;;12.70;48.40;;;;;;5063044;28;20110;-78
2024/03/10 08:30:09;;;;;;;2.83;1.85;;;12.70;47.30;;;;;;5079203;28;20079;-78
2024/03/10 08:32:39;;;;;;;2.95;1.50;;;12.60;46.30;;;;;;5061428;28;20033;-78
2024/03/10 08:35:09;;;;;;;2.33;1.50;;;12.60;46.70;;;;;;5086288;28;20075;-78
2024/03/10 08:37:36;;;;;;;2.58;1.52;;;12.50;46.20;;;;;;5086746;28;20063;-78
2024/03/10 08:40:13;;;;;;;3.22;1.70;;;12.40;46.30;;;;;;5053559;28;20067;-78
2024/03/10 08:42:42;;;;;;;2.25;1.30;;;12.40;45.60;;;;;;5052129;28;20120;-78
2024/03/10 08:45:12;;;;;;;2.90;1.38;;;12.40;45.40;;;;;;5051618;28;20040;-78
2024/03/10 08:47:45;;;;;;;2.17;1.20;;;12.30;45.70;;;;;;5052750;28;20150;-79
2024/03/10 08:50:12;;;;;;;2.28;1.40;;;12.30;44.70;;;;;;5085630;28;20039;-79
2024/03/10 08:52:40;;;;;;;1.48;1.25;;;12.20;43.80;;;;;;5052253;28;20036;-78
2024/03/10 08:55:07;;;;;;;1.98;1.38;;;12.20;43.00;;;;;;5053349;28;20057;-77
2024/03/10 08:57:35;;;;;;;1.67;1.23;;;12.10;42.90;;;;;;5052760;28;20521;-77
2024/03/10 09:00:02;;;;;;;1.98;1.42;;;12.00;43.20;;;;;;5066850;28;20064;-76
2024/03/10 09:02:30;;;;;;;2.38;1.20;;;11.90;42.40;;;;;;5049792;28;20028;-76
2024/03/10 09:04:56;;;;;;;3.00;1.27;;;11.90;42.50;;;;;;5052562;28;20109;-77
2024/03/10 09:07:23;;;;;;;1.75;1.30;;;11.80;42.90;;;;;;5066621;28;20040;-77
2024/03/10 09:09:49;;;;;;;1.83;1.20;;;11.70;42.30;;;;;;5051670;28;20033;-77
2024/03/10 09:12:15;;;;;;;2.25;1.52;;;11.60;42.00;;;;;;5051387;28;20068;-79
2024/03/10 09:14:41;;;;;;;1.65;1.00;;;11.60;42.10;;;;;;5063811;28;20079;-78
2024/03/10 09:17:07;;;;;;;1.90;1.48;;;11.50;42.10;;;;;;5050771;28;20495;-78
2024/03/10 09:19:33;;;;;;;3.58;1.50;;;11.40;42.20;;;;;;5049759;28;20143;-79
2024/03/10 09:21:59;;;;;;;2.88;1.20;;;11.40;42.50;;;;;;5051067;28;20078;-78
2024/03/10 09:24:26;;;;;;;1.35;1.20;;;11.40;42.50;;;;;;5050634;28;20107;-78
2024/03/10 09:26:56;;;;;;;2.72;1.60;;;11.30;42.50;;;;;;5082815;28;20499;-78
2024/03/10 09:29:28;;;;;;;1.30;1.10;;;11.20;42.50;;;;;;5051268;28;20086;-78
2024/03/10 09:31:57;;;;;;;1.98;1.20;;;11.20;42.60;;;;;;5051347;28;20523;-79
2024/03/10 09:34:23;;;;;;;2.15;1.10;;;11.10;43.10;;;;;;5056630;28;20032;-78
2024/03/10 09:36:54;;;;;;;1.60;1.10;;;11.00;42.40;;;;;;5049903;28;20056;-79
2024/03/10 09:39:22;;;;;;;1.33;1.20;;;10.90;42.10;;;;;;5051645;28;20044;-79
2024/03/10 09:41:50;;;;;;;2.17;1.00;;;10.90;42.90;;;;;;5053854;28;20037;-77
2024/03/10 09:44:22;;;;;;;2.88;1.40;;;10.80;42.70;;;;;;5050304;28;20075;-78
2024/03/10 09:46:49;;;;;;;1.25;1.08;;;10.80;42.90;;;;;;5069690;28;20032;-79
2024/03/10 09:49:22;;;;;;;3.85;1.30;;;10.70;42.90;;;;;;5084322;28;20033;-79
2024/03/10 09:51:53;;;;;;;2.13;1.52;;;10.60;42.70;;;;;;5052118;28;20128;-77
2024/03/10 09:54:19;;;;;;;1.63;1.10;;;10.60;42.50;;;;;;5049742;28;20060;-78
2024/03/10 09:56:47;;;;;;;1.58;1.05;;;10.60;42.40;;;;;;5049887;28;20029;-77
2024/03/10 09:59:51;;;;;;;1.85;1.40;;;10.50;42.90;;;;;;5050520;28;20060;-76
2024/03/10 10:02:42;;;;;;;2.08;1.27;;;10.40;43.10;;;;;;5070272;28;20048;-78
2024/03/10 10:05:24;;;;;;;1.67;1.20;;;10.40;43.40;;;;;;5061183;28;20048;-78
2024/03/10 10:07:52;;;;;;;1.27;1.05;;;10.40;43.20;;;;;;5059086;28;20491;-79
2024/03/10 10:10:21;;;;;;;1.60;1.15;;;10.30;43.30;;;;;;5062256;28;20407;-77
2024/03/10 10:12:49;;;;;;;1.15;1.00;;;10.30;43.40;;;;;;5058762;28;20074;-77
2024/03/10 10:15:21;;;;;;;2.45;1.30;;;10.20;43.20;;;;;;5058959;28;20031;-77
2024/03/10 10:17:59;;;;;;;2.10;1.30;;;10.20;43.40;;;;;;5059655;28;20045;-78
2024/03/10 10:20:25;;;;;;;1.27;0.95;;;10.20;43.60;;;;;;5041305;28;20039;-78
2024/03/10 10:22:53;;;;;;;1.50;1.23;;;10.10;43.50;;;;;;5055794;28;20474;-78
2024/03/10 10:25:19;;;;;;;1.70;1.05;;;10.10;43.30;;;;;;5059828;28;20055;-77
2024/03/10 10:27:50;;;;;;;1.63;1.08;;;10.00;43.40;;;;;;5058854;28;20445;-78
2024/03/10 10:30:19;;;;;;;1.67;1.40;;;10.00;43.30;;;;;;5061134;28;20120;-78
2024/03/10 10:32:47;;;;;;;1.10;1.00;;;9.90;43.10;;;;;;5058455;28;20486;-77
2024/03/10 10:35:14;;;;;;;1.95;1.20;;;9.90;43.30;;;;;;5057725;28;20040;-77
2024/03/10 10:37:40;;;;;;;2.05;1.27;;;9.90;43.10;;;;;;5055313;28;20036;-77
2024/03/10 10:40:11;;;;;;;1.48;1.23;;;9.90;43.30;;;;;;5057566;28;20791;-79
2024/03/10 10:42:38;;;;;;;1.25;1.15;;;9.80;43.50;;;;;;5056553;28;20925;-78
2024/03/10 10:45:09;;;;;;;1.42;1.20;;;9.80;43.30;;;;;;5055885;28;20036;-77
2024/03/10 10:47:36;;;;;;;3.35;1.20;;;9.80;43.40;;;;;;5059161;28;20052;-77
2024/03/10 10:50:14;;;;;;;1.83;1.27;;;9.80;43.30;;;;;;5059056;28;20029;-77
2024/03/10 10:52:42;;;;;;;2.58;1.10;;;9.70;43.30;;;;;;5054605;28;20567;-77
2024/03/10 10:55:10;;;;;;;2.05;1.02;;;9.70;43.70;;;;;;5057520;28;20029;-78
2024/03/10 10:57:42;;;;;;;2.55;1.25;;;9.60;43.30;;;;;;5057126;28;20042;-79
2024/03/10 11:00:26;;;;;;;1.95;1.10;;;9.60;43.40;;;;;;5056364;28;20041;-78
2024/03/10 11:03:16;;;;;;;1.33;1.08;;;9.60;43.40;;;;;;5055935;28;20514;-78
2024/03/10 11:06:06;;;;;;;1.20;0.93;;;9.50;43.50;;;;;;5060019;28;20033;-77
2024/03/10 11:08:34;;;;;;;2.05;1.17;;;9.50;43.20;;;;;;5049831;28;20392;-77
2024/03/10 11:11:01;;;;;;;1.70;1.02;;;9.50;43.10;;;;;;5055734;28;20788;-77
2024/03/10 11:13:28;;;;;;;1.52;0.98;;;9.50;43.30;;;;;;5054773;28;20036;-75
2024/03/10 11:16:04;;;;;;;3.22;0.90;;;9.40;43.30;;;;;;5058399;28;20025;-77
2024/03/10 11:18:32;;;;;;;1.95;1.20;;;9.40;43.20;;;;;;5053176;28;20550;-75
2024/03/10 11:21:00;;;;;;;0.75;0.73;;;9.40;43.60;;;;;;5060270;28;20048;-78
2024/03/10 11:23:37;;;;;;;2.38;1.10;;;9.30;43.70;;;;;;5059158;28;20020;-77
2024/03/10 11:26:07;;;;;;;1.27;1.00;;;9.30;43.60;;;;;;5057985;28;20629;-78
2024/03/10 11:28:55;;;;;;;1.83;1.23;;;9.30;43.80;;;;;;5071184;28;20442;-77
2024/03/10 11:31:25;;;;;;;2.50;1.40;;;9.20;43.90;;;;;;5059312;28;20149;-76
2024/03/10 11:33:54;;;;;;;1.15;0.90;;;9.30;43.50;;;;;;5058740;28;20036;-77
2024/03/10 11:36:23;;;;;;;2.30;1.17;;;9.20;43.60;;;;;;5057220;28;20139;-77
2024/03/10 11:38:51;;;;;;;1.42;0.90;;;9.20;43.60;;;;;;5056181;28;20040;-77
2024/03/10 11:41:19;;;;;;;1.20;0.90;;;9.20;43.60;;;;;;5059386;28;20031;-77
2024/03/10 11:43:48;;;;;;;2.03;1.05;;;9.10;43.90;;;;;;5057449;28;20060;-77
2024/03/10 11:46:31;;;;;;;1.30;0.90;;;9.20;43.70;;;;;;5057868;28;20115;-78
2024/03/10 11:49:01;;;;;;;2.70;0.60;;;9.20;43.90;;;;;;5057525;28;20936;-77
2024/03/10 11:51:33;;;;;;;1.40;1.00;;;9.10;43.70;;;;;;5058851;28;20040;-78
2024/03/10 11:54:04;;;;;;;1.40;1.23;;;9.10;43.50;;;;;;5057293;28;20395;-77
2024/03/10 11:56:33;;;;;;;1.40;1.10;;;9.20;43.70;;;;;;5060253;28;20040;-77
2024/03/10 11:59:00;;;;;;;0.98;0.98;;;9.20;43.90;;;;;;5059504;28;20064;-78
2024/03/10 12:01:27;;;;;;;1.90;1.10;;;9.10;44.20;;;;;;5072434;28;20057;-80
2024/03/10 12:04:00;;;;;;;0.85;0.85;;;9.10;44.10;;;;;;5056127;28;20033;-78
2024/03/10 12:06:26;;;;;;;0.80;0.80;;;9.10;44.00;;;;;;5054991;28;20029;-77
2024/03/10 12:08:52;;;;;;;1.05;0.77;;;9.10;43.70;;;;;;5058208;28;20033;-77
2024/03/10 12:11:24;;;;;;;1.65;0.88;;;9.10;44.00;;;;;;5058047;28;20036;-78
2024/03/10 12:13:51;;;;;;;1.58;1.00;;;9.00;44.00;;;;;;5057001;28;20036;-79
2024/03/10 12:16:17;;;;;;;1.63;1.13;;;9.00;43.50;;;;;;5056796;28;20033;-78
2024/03/10 12:18:43;;;;;;;0.80;0.80;;;9.00;43.80;;;;;;5058702;28;20064;-77
2024/03/10 12:21:14;;;;;;;1.55;1.10;;;9.00;43.70;;;;;;5057059;28;20111;-77
2024/03/10 12:23:44;;;;;;;1.40;0.93;;;9.00;43.80;;;;;;5062028;28;20029;-78
2024/03/10 12:26:11;;;;;;;1.00;0.95;;;9.00;43.90;;;;;;5063497;28;20032;-77
2024/03/10 12:28:39;;;;;;;1.98;0.75;;;9.00;44.00;;;;;;5061793;28;20684;-77
2024/03/10 12:31:15;;;;;;;1.88;1.00;;;9.00;43.70;;;;;;5063478;28;20546;-77
2024/03/10 12:33:49;;;;;;;2.05;1.08;;;9.00;44.10;;;;;;5061589;28;20044;-78
2024/03/10 12:36:17;;;;;;;2.70;1.00;;;9.00;44.20;;;;;;5062400;28;20043;-77
2024/03/10 12:38:44;;;;;;;2.85;1.13;;;8.90;44.00;;;;;;5063371;28;20028;-78
2024/03/10 12:41:14;;;;;;;1.00;0.90;;;8.90;43.70;;;;;;5063159;28;20044;-79
2024/03/10 12:43:41;;;;;;;2.05;0.98;;;8.90;43.70;;;;;;5062747;28;20041;-81
2024/03/10 12:46:14;;;;;;;1.13;0.80;;;8.90;43.80;;;;;;5061401;28;20033;-81
2024/03/10 12:48:41;;;;;;;1.38;1.10;;;8.90;44.00;;;;;;5060243;28;20040;-80
2024/03/10 12:51:09;;;;;;;1.85;0.80;;;8.90;44.00;;;;;;5071069;28;20499;-81
2024/03/10 12:53:37;;;;;;;1.45;1.10;;;8.90;43.80;;;;;;5061392;28;20064;-80
2024/03/10 12:56:03;;;;;;;0.73;0.70;;;8.90;44.00;;;;;;5056818;28;20039;-80
2024/03/10 12:58:31;;;;;;;0.75;0.70;;;8.90;44.10;;;;;;5061779;28;20037;-79
2024/03/10 13:01:16;;;;;;;1.17;0.88;;;8.90;44.50;;;;;;5060806;28;20487;-80
2024/03/10 13:03:42;;;;;;;0.80;0.80;;;8.90;44.50;;;;;;5069354;28;20047;-80
2024/03/10 13:06:08;;;;;;;1.70;0.80;;;8.90;44.30;;;;;;5049521;28;20418;-80
2024/03/10 13:08:34;;;;;;;2.00;0.88;;;8.90;44.30;;;;;;5050641;28;20082;-80
2024/03/10 13:11:00;;;;;;;1.95;0.90;;;8.90;44.60;;;;;;5045923;28;20029;-80
2024/03/10 13:13:27;;;;;;;1.15;1.05;;;8.90;44.80;;;;;;5022788;28;20068;-80
2024/03/10 13:15:54;;;;;;;1.85;0.80;;;8.80;44.30;;;;;;5033597;28;20061;-80
2024/03/10 13:18:21;;;;;;;1.15;0.88;;;8.90;44.80;;;;;;5051672;28;20127;-80
2024/03/10 13:20:47;;;;;;;3.08;0.85;;;8.80;44.50;;;;;;5060774;28;20040;-80
2024/03/10 13:23:14;;;;;;;1.83;1.02;;;8.90;44.70;;;;;;5027939;28;20032;-80
2024/03/10 13:25:40;;;;;;;0.68;0.68;;;8.80;44.80;;;;;;5048709;28;20044;-82